Time;durP1;ratioP1;P1;durP2;ratioP2;P2;SDS_P1;SDS_P2;PMS_P1;PMS_P2;Temp;Humidity;BMP_temperature;BMP_pressure;BME280_temperature;BME280_humidity;BME280_pressure;Samples;Min_cycle;Max_cycle;Signal;HPM_P1;HPM_P2
2022/01/27 00:01:52;;;;;;;6.30;5.80;;;;;;;1.05;62.57;95593.31;5138601;27;20179;-62
2022/01/27 00:04:24;;;;;;;5.43;5.03;;;;;;;1.03;62.53;95595.50;5138385;27;20523;-62
2022/01/27 00:06:52;;;;;;;6.30;5.80;;;;;;;1.03;62.44;95591.97;5120650;27;20234;-62
2022/01/27 00:09:26;;;;;;;5.95;5.45;;;;;;;1.04;62.42;95582.72;5120799;27;20202;-62
2022/01/27 00:11:52;;;;;;;7.28;6.68;;;;;;;1.03;62.77;95581.91;5137446;27;20234;-62
2022/01/27 00:14:21;;;;;;;6.40;5.90;;;;;;;1.05;62.60;95584.34;5138273;27;20592;-62
2022/01/27 00:16:59;;;;;;;6.30;5.80;;;;;;;1.03;62.66;95581.91;5120394;27;20246;-62
2022/01/27 00:19:26;;;;;;;6.28;5.78;;;;;;;1.01;62.73;95581.38;5138491;27;20191;-62
2022/01/27 00:21:54;;;;;;;5.35;4.95;;;;;;;0.99;62.69;95580.06;5138251;27;20203;-62
2022/01/27 00:24:21;;;;;;;5.30;4.90;;;;;;;1.00;62.27;95582.47;5138345;27;20191;-62
2022/01/27 00:26:48;;;;;;;5.30;4.90;;;;;;;1.04;62.60;95583.53;5138234;27;20547;-62
2022/01/27 00:29:15;;;;;;;5.15;4.75;;;;;;;1.07;62.12;95585.69;5138254;27;20199;-63
2022/01/27 00:31:42;;;;;;;4.63;4.22;;;;;;;1.06;62.35;95586.81;5120094;27;20577;-63
2022/01/27 00:34:08;;;;;;;4.65;4.35;;;;;;;1.09;61.94;95588.13;5120068;27;20202;-63
2022/01/27 00:36:35;;;;;;;4.68;4.28;;;;;;;1.06;62.05;95575.94;5137828;27;20523;-62
2022/01/27 00:39:03;;;;;;;4.47;4.18;;;;;;;1.08;62.11;95575.63;5120020;27;20630;-62
2022/01/27 00:41:30;;;;;;;4.57;4.20;;;;;;;1.11;61.84;95575.09;5137909;27;20209;-62
2022/01/27 00:43:57;;;;;;;4.88;4.47;;;;;;;1.11;61.88;95583.22;5137861;27;20191;-62
2022/01/27 00:46:24;;;;;;;4.45;4.15;;;;;;;1.11;62.16;95581.31;5119575;27;20198;-64
2022/01/27 00:48:51;;;;;;;4.78;4.40;;;;;;;1.10;61.98;95585.13;5119807;27;20207;-62
2022/01/27 00:51:22;;;;;;;5.28;4.88;;;;;;;1.12;61.75;95579.41;5119951;27;20199;-62
2022/01/27 00:53:53;;;;;;;5.72;5.22;;;;;;;1.03;61.99;95579.19;5119325;27;20625;-62
2022/01/27 00:56:28;;;;;;;6.15;5.65;;;;;;;1.00;62.09;95578.94;5137916;27;20222;-62
2022/01/27 00:59:04;;;;;;;5.93;5.40;;;;;;;0.98;62.02;95590.09;5137920;27;20276;-62
2022/01/27 01:01:35;;;;;;;6.13;5.53;;;;;;;1.02;62.26;95584.91;5137552;27;20290;-62
2022/01/27 01:04:05;;;;;;;6.30;5.78;;;;;;;1.05;62.07;95582.44;5119408;27;20683;-62
2022/01/27 01:06:37;;;;;;;6.03;5.53;;;;;;;1.04;61.61;95580.81;5137658;27;20210;-62
2022/01/27 01:14:41;;;;;;;6.25;5.65;;;;;;;1.11;60.91;95565.03;5136384;27;20214;-62
2022/01/27 01:17:24;;;;;;;5.57;5.07;;;;;;;1.16;60.91;95565.00;5137427;27;20244;-63
2022/01/27 01:20:04;;;;;;;6.28;5.68;;;;;;;1.16;61.08;95565.00;5137178;27;20206;-63
2022/01/27 01:30:52;;;;;;;6.68;5.47;;;;;;;1.18;60.72;95570.16;5136735;27;20187;-62
2022/01/27 01:33:27;;;;;;;5.57;5.10;;;;;;;1.18;60.92;95568.25;5136988;27;20214;-63
2022/01/27 01:36:05;;;;;;;7.55;5.47;;;;;;;1.17;61.17;95571.25;5118785;27;20204;-63
2022/01/27 01:38:31;;;;;;;5.60;5.07;;;;;;;1.20;60.78;95563.34;5119091;27;20203;-63
2022/01/27 01:40:58;;;;;;;5.90;5.30;;;;;;;1.21;60.51;95572.31;5136844;27;20197;-63
2022/01/27 01:43:28;;;;;;;4.70;4.30;;;;;;;1.21;60.85;95556.00;5136883;27;20187;-63
2022/01/27 01:45:55;;;;;;;5.30;4.80;;;;;;;1.19;60.73;95560.91;5118543;27;20203;-63
2022/01/27 01:48:23;;;;;;;5.22;4.72;;;;;;;1.20;60.73;95566.06;5118882;27;20199;-63
2022/01/27 01:50:50;;;;;;;5.25;4.75;;;;;;;1.21;60.63;95558.72;5136579;27;20293;-63
2022/01/27 01:53:17;;;;;;;6.93;5.13;;;;;;;1.22;60.77;95556.81;5136397;27;20211;-63
2022/01/27 01:55:44;;;;;;;5.80;4.85;;;;;;;1.20;60.85;95551.69;5136589;27;20187;-63
2022/01/27 01:58:12;;;;;;;6.00;4.63;;;;;;;1.19;60.82;95541.88;5136700;27;20207;-63
2022/01/27 02:00:40;;;;;;;4.80;4.30;;;;;;;1.22;60.56;95544.03;5136604;27;20195;-63
2022/01/27 02:03:07;;;;;;;3.63;3.33;;;;;;;1.19;60.83;95547.31;5118107;27;20190;-62
2022/01/27 02:05:39;;;;;;;3.85;3.55;;;;;;;1.18;60.89;95545.69;5136618;27;20203;-62
2022/01/27 02:08:29;;;;;;;3.13;2.90;;;;;;;1.17;60.79;95547.59;5136172;27;20206;-62
2022/01/27 02:19:14;;;;;;;2.90;2.70;;;;;;;1.13;61.71;95532.16;5136012;27;20187;-63
2022/01/27 02:21:50;;;;;;;2.67;2.47;;;;;;;1.13;61.81;95529.44;5118184;27;20366;-62
2022/01/27 02:24:18;;;;;;;2.92;2.72;;;;;;;1.12;62.15;95530.50;5136641;27;20229;-63
2022/01/27 02:26:47;;;;;;;2.80;2.60;;;;;;;1.11;62.37;95529.69;5118221;28;20209;-63
2022/01/27 02:29:15;;;;;;;2.30;2.20;;;;;;;1.13;62.14;95532.16;5136174;28;20207;-63
2022/01/27 02:31:41;;;;;;;2.33;2.22;;;;;;;1.06;62.29;95524.31;5136101;28;20195;-63
2022/01/27 02:34:08;;;;;;;2.55;2.45;;;;;;;1.08;62.43;95535.69;5119977;27;20206;-63
2022/01/27 02:36:35;;;;;;;2.60;2.40;;;;;;;1.11;62.16;95527.00;5122857;27;20210;-63
2022/01/27 02:39:04;;;;;;;2.78;2.58;;;;;;;1.12;62.59;95523.16;5122411;27;20191;-63
2022/01/27 02:41:33;;;;;;;3.00;2.80;;;;;;;1.13;62.14;95515.84;5140361;27;20361;-63
2022/01/27 02:44:18;;;;;;;3.03;2.83;;;;;;;1.12;62.69;95520.44;5140275;27;20183;-63
2022/01/27 02:46:46;;;;;;;2.90;2.70;;;;;;;1.10;62.17;95525.38;5140253;27;20205;-62
2022/01/27 02:49:13;;;;;;;2.85;2.65;;;;;;;1.11;62.85;95528.91;5140191;27;20191;-63
2022/01/27 02:51:40;;;;;;;2.70;2.50;;;;;;;1.12;62.25;95530.50;5122057;27;20522;-63
2022/01/27 02:54:08;;;;;;;2.40;2.20;;;;;;;1.13;62.57;95532.97;5139665;27;20531;-63
2022/01/27 02:56:38;;;;;;;2.80;2.60;;;;;;;1.11;62.48;95526.19;5140044;27;20194;-62
2022/01/27 02:59:05;;;;;;;2.80;2.60;;;;;;;1.08;62.47;95532.16;5121578;27;20249;-62
2022/01/27 03:01:32;;;;;;;2.95;2.75;;;;;;;1.06;62.51;95528.94;5139945;27;20210;-63
2022/01/27 03:03:59;;;;;;;2.53;2.40;;;;;;;1.09;62.57;95537.34;5139883;27;20191;-63
2022/01/27 03:06:25;;;;;;;2.25;2.15;;;;;;;1.11;62.33;95529.69;5121625;27;20551;-63
2022/01/27 03:08:52;;;;;;;2.63;2.42;;;;;;;1.12;61.91;95535.94;5139822;27;20199;-62
2022/01/27 03:11:36;;;;;;;2.65;2.47;;;;;;;1.13;62.12;95535.69;5139902;27;20209;-62
2022/01/27 03:14:03;;;;;;;2.53;2.33;;;;;;;1.18;62.01;95530.19;5121584;27;20218;-62
2022/01/27 03:16:30;;;;;;;2.30;2.20;;;;;;;1.19;61.87;95534.53;5121740;27;20235;-62
2022/01/27 03:18:57;;;;;;;2.20;2.10;;;;;;;1.21;61.74;95531.56;5139807;27;20191;-62
2022/01/27 03:21:23;;;;;;;2.13;2.03;;;;;;;1.22;62.00;95530.44;5121301;27;20198;-63
2022/01/27 03:23:50;;;;;;;2.70;2.50;;;;;;;1.22;61.96;95525.00;5139516;27;20183;-63
2022/01/27 03:26:17;;;;;;;2.85;2.65;;;;;;;1.22;62.00;95524.22;5122100;27;20199;-63
2022/01/27 03:28:46;;;;;;;2.92;2.72;;;;;;;1.19;62.12;95523.66;5121057;27;20607;-63
2022/01/27 03:31:13;;;;;;;2.85;2.60;;;;;;;1.20;62.48;95529.94;5139073;27;20611;-63
2022/01/27 03:33:40;;;;;;;2.95;2.75;;;;;;;1.19;62.76;95525.56;5138954;27;20570;-63
2022/01/27 03:36:07;;;;;;;3.60;3.30;;;;;;;1.18;62.30;95537.53;5139367;27;20207;-64
2022/01/27 03:38:33;;;;;;;2.92;2.72;;;;;;;1.17;62.36;95536.75;5121226;27;20207;-63
2022/01/27 03:41:05;;;;;;;2.75;2.55;;;;;;;1.19;62.25;95534.53;5139132;27;20206;-63
2022/01/27 03:43:32;;;;;;;2.50;2.40;;;;;;;1.19;62.45;95534.53;5121133;27;20202;-62
2022/01/27 03:46:00;;;;;;;3.33;3.13;;;;;;;1.18;62.52;95534.81;5120654;27;20276;-62
2022/01/27 03:48:27;;;;;;;3.00;2.80;;;;;;;1.22;62.31;95537.78;5120676;27;20203;-62
2022/01/27 03:50:54;;;;;;;3.17;2.97;;;;;;;1.20;62.14;95538.91;5139007;27;20198;-62
2022/01/27 03:53:21;;;;;;;3.00;2.80;;;;;;;1.19;62.67;95537.25;5120979;27;20211;-62
2022/01/27 03:55:48;;;;;;;2.80;2.60;;;;;;;1.20;62.49;95544.31;5138850;27;20202;-62
2022/01/27 03:58:14;;;;;;;2.97;2.78;;;;;;;1.21;62.46;95542.41;5138960;27;20205;-62
2022/01/27 04:00:42;;;;;;;3.05;2.85;;;;;;;1.18;62.70;95541.06;5121260;27;20194;-63
2022/01/27 04:03:13;;;;;;;2.72;2.63;;;;;;;1.20;62.40;95541.63;5120481;27;20201;-63
2022/01/27 04:05:43;;;;;;;3.20;3.00;;;;;;;1.25;62.05;95545.38;5138675;27;20310;-63
2022/01/27 04:08:11;;;;;;;3.10;2.90;;;;;;;1.27;62.58;95549.44;5120339;27;20611;-62
2022/01/27 04:10:39;;;;;;;4.03;3.72;;;;;;;1.27;62.37;95556.75;5138696;27;20199;-70
2022/01/27 04:13:07;;;;;;;3.25;3.00;;;;;;;1.31;62.77;95550.50;5120434;27;20315;-63
2022/01/27 04:15:35;;;;;;;3.67;3.38;;;;;;;1.39;62.30;95551.81;5138597;27;20188;-62
2022/01/27 04:18:02;;;;;;;2.60;2.50;;;;;;;1.44;62.02;95555.28;5138580;27;20234;-63
2022/01/27 04:20:30;;;;;;;2.60;2.45;;;;;;;1.48;62.17;95557.44;5138449;27;20199;-63
2022/01/27 04:22:57;;;;;;;2.40;2.30;;;;;;;1.44;62.36;95554.47;5120416;27;20199;-63
2022/01/27 04:25:23;;;;;;;2.78;2.58;;;;;;;1.36;62.38;95547.75;5120599;27;20207;-63
2022/01/27 04:27:54;;;;;;;3.30;3.10;;;;;;;1.31;62.54;95553.22;5120262;27;20203;-63
2022/01/27 04:30:23;;;;;;;3.13;2.92;;;;;;;1.33;62.62;95553.75;5138243;27;20206;-62
2022/01/27 04:32:54;;;;;;;3.50;3.20;;;;;;;1.31;62.57;95555.13;5120268;27;20250;-62
2022/01/27 04:35:23;;;;;;;3.80;3.50;;;;;;;1.30;63.13;95558.94;5120330;27;20588;-63
2022/01/27 04:38:03;;;;;;;3.25;3.05;;;;;;;1.28;62.71;95555.69;5138049;27;20278;-63
2022/01/27 04:40:35;;;;;;;3.40;3.20;;;;;;;1.26;63.40;95555.97;5138507;27;20186;-62
2022/01/27 04:43:08;;;;;;;3.53;3.22;;;;;;;1.26;62.79;95558.69;5138104;27;20195;-63
2022/01/27 04:45:43;;;;;;;3.80;3.50;;;;;;;1.29;62.48;95560.84;5137880;27;20199;-62
2022/01/27 04:48:13;;;;;;;3.90;3.60;;;;;;;1.29;62.64;95563.56;5119505;27;20225;-62
2022/01/27 04:50:40;;;;;;;4.55;4.25;;;;;;;1.28;62.47;95567.38;5119753;27;20224;-62
2022/01/27 04:53:14;;;;;;;4.25;3.95;;;;;;;1.26;62.74;95571.47;5119700;27;20603;-64
2022/01/27 04:55:41;;;;;;;4.07;3.78;;;;;;;1.26;62.73;95574.19;5137676;27;20490;-61
2022/01/27 04:58:13;;;;;;;4.25;3.95;;;;;;;1.29;62.94;95569.00;5137344;27;20197;-61
2022/01/27 05:00:40;;;;;;;4.50;4.20;;;;;;;1.29;62.67;95570.91;5119634;27;20240;-61
2022/01/27 05:03:16;;;;;;;4.60;4.30;;;;;;;1.29;62.92;95576.34;5137256;27;20183;-61
2022/01/27 05:05:43;;;;;;;4.72;4.43;;;;;;;1.27;63.22;95579.34;5137694;27;20240;-61
2022/01/27 05:08:17;;;;;;;4.97;4.65;;;;;;;1.28;62.89;95580.97;5136828;27;20434;-68
2022/01/27 05:10:53;;;;;;;4.43;4.10;;;;;;;1.27;63.24;95573.06;5137698;27;20282;-61
2022/01/27 05:13:22;;;;;;;4.32;4.03;;;;;;;1.25;63.39;95572.56;5137371;27;20303;-61
2022/01/27 05:15:49;;;;;;;5.07;4.68;;;;;;;1.27;63.45;95579.34;5118934;27;20538;-61
2022/01/27 05:18:16;;;;;;;4.20;3.90;;;;;;;1.28;63.79;95588.31;5119241;27;20214;-61
2022/01/27 05:20:43;;;;;;;3.80;3.50;;;;;;;1.30;63.37;95592.34;5137247;27;20199;-61
2022/01/27 05:23:12;;;;;;;4.25;3.95;;;;;;;1.33;63.23;95590.97;5137165;27;20188;-61
2022/01/27 05:25:39;;;;;;;4.05;3.75;;;;;;;1.33;63.34;95593.69;5136848;27;20603;-61
2022/01/27 05:28:06;;;;;;;3.92;3.63;;;;;;;1.31;63.60;95598.63;5137062;27;20187;-63
2022/01/27 05:30:33;;;;;;;4.03;3.72;;;;;;;1.29;63.98;95589.91;5137307;27;20218;-61
2022/01/27 05:33:00;;;;;;;4.82;4.53;;;;;;;1.29;63.60;95596.16;5136960;27;20226;-62
2022/01/27 05:35:28;;;;;;;4.68;4.38;;;;;;;1.30;63.84;95595.06;5136933;27;20191;-61
2022/01/27 05:37:54;;;;;;;5.20;4.80;;;;;;;1.28;64.05;95600.00;5136886;27;20187;-61
2022/01/27 05:40:23;;;;;;;5.57;5.10;;;;;;;1.27;63.92;95592.94;5136700;27;20217;-61
2022/01/27 05:42:49;;;;;;;5.50;5.10;;;;;;;1.29;63.90;95598.06;5136823;27;20211;-61
2022/01/27 05:45:16;;;;;;;5.30;5.00;;;;;;;1.25;64.55;95608.69;5136467;27;20199;-61
2022/01/27 05:47:43;;;;;;;5.38;4.97;;;;;;;1.28;64.19;95604.63;5136643;27;20534;-61
2022/01/27 05:50:10;;;;;;;6.22;5.72;;;;;;;1.28;64.37;95605.41;5136433;27;20195;-61
2022/01/27 05:52:37;;;;;;;5.93;5.45;;;;;;;1.31;64.32;95598.63;5136338;27;20198;-61
2022/01/27 05:55:04;;;;;;;6.28;5.78;;;;;;;1.32;64.16;95605.66;5136516;27;20211;-61
2022/01/27 05:57:32;;;;;;;6.30;5.80;;;;;;;1.33;64.04;95608.09;5136714;27;20210;-61
2022/01/27 05:59:59;;;;;;;6.78;6.28;;;;;;;1.32;64.20;95606.47;5118382;27;20217;-61
2022/01/27 06:02:26;;;;;;;5.93;5.53;;;;;;;1.31;64.39;95606.78;5118443;27;20208;-62
2022/01/27 06:04:53;;;;;;;6.00;5.60;;;;;;;1.31;64.25;95612.22;5136689;27;20198;-61
2022/01/27 06:07:19;;;;;;;6.43;5.93;;;;;;;1.31;64.51;95614.94;5118563;27;20217;-61
2022/01/27 06:09:46;;;;;;;6.10;5.70;;;;;;;1.31;64.68;95613.00;5117430;28;20201;-62
2022/01/27 06:12:13;;;;;;;6.10;5.70;;;;;;;1.32;64.46;95616.53;5118705;27;20211;-65
2022/01/27 06:14:41;;;;;;;6.03;5.60;;;;;;;1.31;64.61;95623.88;5136208;27;20215;-62
2022/01/27 06:17:08;;;;;;;6.32;5.82;;;;;;;1.33;64.52;95618.16;5135977;27;20249;-62
2022/01/27 06:19:35;;;;;;;6.80;6.30;;;;;;;1.31;64.40;95623.09;5118354;27;20210;-62
2022/01/27 06:22:03;;;;;;;7.10;6.60;;;;;;;1.32;64.56;95624.69;5118233;27;20199;-63
2022/01/27 06:24:30;;;;;;;6.68;6.07;;;;;;;1.29;64.89;95620.63;5118236;28;20195;-63
2022/01/27 06:26:57;;;;;;;7.38;6.72;;;;;;;1.35;64.29;95626.84;5136343;27;20202;-62
2022/01/27 06:29:24;;;;;;;7.30;6.60;;;;;;;1.38;64.24;95631.72;5135685;28;20627;-63
2022/01/27 06:31:52;;;;;;;7.28;6.68;;;;;;;1.40;64.41;95637.69;5118141;28;20191;-62
2022/01/27 06:34:19;;;;;;;7.10;6.50;;;;;;;1.42;64.27;95632.78;5118505;28;20221;-63
2022/01/27 06:36:45;;;;;;;6.95;6.45;;;;;;;1.39;64.61;95639.59;5118076;28;20210;-62
2022/01/27 06:39:12;;;;;;;7.07;6.47;;;;;;;1.41;64.42;95631.97;5136109;28;20195;-63
2022/01/27 06:41:39;;;;;;;7.78;7.18;;;;;;;1.38;64.68;95637.16;5136113;28;20195;-62
2022/01/27 06:44:06;;;;;;;9.38;8.57;;;;;;;1.42;64.48;95633.59;5135917;28;20203;-63
2022/01/27 06:46:35;;;;;;;9.20;8.38;;;;;;;1.50;64.14;95634.09;5118084;28;20195;-63
2022/01/27 06:49:04;;;;;;;8.18;7.47;;;;;;;1.52;63.98;95631.91;5118121;28;20199;-64
2022/01/27 06:51:31;;;;;;;6.93;6.35;;;;;;;1.53;63.94;95630.81;5117964;28;20216;-64
2022/01/27 06:53:58;;;;;;;8.07;7.38;;;;;;;1.52;63.63;95634.63;5135803;28;20214;-64
2022/01/27 06:56:25;;;;;;;9.07;8.27;;;;;;;1.54;63.92;95635.16;5135951;28;20191;-64
2022/01/27 06:58:52;;;;;;;8.73;8.00;;;;;;;1.56;63.77;95627.53;5136050;28;20221;-64
2022/01/27 07:01:19;;;;;;;8.50;7.80;;;;;;;1.60;63.62;95629.41;5135996;28;20195;-64
2022/01/27 07:03:46;;;;;;;8.07;7.35;;;;;;;1.61;63.34;95627.50;5117845;28;20195;-64
2022/01/27 07:06:14;;;;;;;7.95;7.25;;;;;;;1.57;64.29;95634.59;5135972;28;20202;-64
2022/01/27 07:08:41;;;;;;;8.57;7.78;;;;;;;1.57;64.27;95635.41;5135354;28;20604;-64
2022/01/27 07:11:08;;;;;;;8.27;7.68;;;;;;;1.55;64.14;95632.16;5118010;28;20195;-64
2022/01/27 07:13:40;;;;;;;8.60;7.88;;;;;;;1.57;64.08;95640.03;5135227;28;20678;-64
2022/01/27 07:16:08;;;;;;;8.43;7.82;;;;;;;1.56;63.85;95643.84;5117489;28;20298;-64
2022/01/27 07:18:34;;;;;;;8.95;8.25;;;;;;;1.58;63.58;95641.66;5136003;28;20199;-64
2022/01/27 07:21:01;;;;;;;9.98;9.18;;;;;;;1.60;63.72;95637.56;5120731;27;20187;-64
2022/01/27 07:23:29;;;;;;;9.82;9.02;;;;;;;1.62;63.90;95648.16;5121661;27;20215;-64
2022/01/27 07:25:56;;;;;;;9.75;9.02;;;;;;;1.64;64.25;95644.06;5121318;27;20209;-63
2022/01/27 07:28:23;;;;;;;8.48;7.88;;;;;;;1.69;63.93;95644.03;5139604;27;20215;-63
2022/01/27 07:30:50;;;;;;;8.55;7.95;;;;;;;1.75;63.86;95644.00;5121328;27;20203;-63
2022/01/27 07:33:17;;;;;;;8.18;7.57;;;;;;;1.74;63.42;95639.63;5121286;27;20549;-64
2022/01/27 07:35:44;;;;;;;6.47;6.00;;;;;;;1.70;63.66;95647.53;5121285;27;20297;-63
2022/01/27 07:38:11;;;;;;;6.95;6.45;;;;;;;1.72;63.55;95655.44;5138769;27;20183;-63
2022/01/27 07:40:39;;;;;;;6.97;6.47;;;;;;;1.77;63.27;95648.03;5138793;27;20549;-63
2022/01/27 07:43:06;;;;;;;6.00;5.60;;;;;;;1.78;63.15;95657.00;5138813;27;20622;-63
2022/01/27 07:45:33;;;;;;;6.10;5.70;;;;;;;1.68;64.03;95650.56;5120936;27;20199;-63
2022/01/27 07:47:59;;;;;;;6.18;5.78;;;;;;;1.71;64.23;95659.22;5139037;27;20201;-63
2022/01/27 07:50:29;;;;;;;6.32;5.85;;;;;;;1.71;64.21;95651.91;5120973;27;20517;-63
2022/01/27 07:52:56;;;;;;;6.30;5.82;;;;;;;1.75;64.42;95654.88;5138979;27;20196;-63
2022/01/27 07:55:22;;;;;;;7.03;6.53;;;;;;;1.76;64.15;95661.94;5139101;27;20230;-63
2022/01/27 07:57:51;;;;;;;7.20;6.70;;;;;;;1.75;64.24;95660.31;5139216;27;20187;-64
2022/01/27 08:00:18;;;;;;;6.90;6.40;;;;;;;1.75;64.33;95660.31;5139425;27;20274;-63
2022/01/27 08:02:46;;;;;;;7.57;6.95;;;;;;;1.75;64.46;95657.59;5139266;27;20191;-63
2022/01/27 08:05:12;;;;;;;8.00;7.40;;;;;;;1.74;64.42;95662.19;5120735;27;20426;-64
2022/01/27 08:07:40;;;;;;;7.28;6.75;;;;;;;1.76;64.47;95660.03;5120561;27;20199;-64
2022/01/27 08:10:07;;;;;;;7.75;7.15;;;;;;;1.78;64.47;95654.28;5138257;27;20611;-64
2022/01/27 08:12:39;;;;;;;8.45;7.85;;;;;;;1.79;64.26;95659.47;5138963;27;20191;-68
2022/01/27 08:15:09;;;;;;;19.60;18.27;;;;;;;1.72;64.89;95663.59;5120358;27;20658;-64
2022/01/27 08:17:35;;;;;;;10.18;9.38;;;;;;;1.75;64.74;95660.31;5138735;27;20241;-64
2022/01/27 08:20:02;;;;;;;9.38;8.65;;;;;;;1.75;64.60;95663.03;5120291;27;20199;-65
2022/01/27 08:22:29;;;;;;;8.40;7.75;;;;;;;1.79;64.86;95664.91;5120290;27;20634;-65
2022/01/27 08:24:56;;;;;;;8.57;7.97;;;;;;;1.84;64.65;95667.56;5138584;27;20202;-65
2022/01/27 08:27:27;;;;;;;9.02;8.32;;;;;;;1.84;64.57;95670.28;5138292;27;20213;-65
2022/01/27 08:29:59;;;;;;;8.85;8.15;;;;;;;1.91;64.66;95665.34;5138188;27;20195;-64
2022/01/27 08:32:44;;;;;;;8.45;7.85;;;;;;;1.93;64.46;95668.63;5137247;27;20202;-64
2022/01/27 08:35:11;;;;;;;9.43;8.73;;;;;;;1.95;64.38;95670.22;5138020;27;20271;-64
2022/01/27 08:37:38;;;;;;;9.02;8.32;;;;;;;1.98;64.24;95670.47;5138200;27;20223;-64
2022/01/27 08:40:05;;;;;;;9.75;8.95;;;;;;;1.98;64.00;95680.53;5137299;27;20751;-65
2022/01/27 08:42:32;;;;;;;8.88;8.18;;;;;;;1.96;64.14;95671.84;5119211;27;20433;-64
2022/01/27 08:44:59;;;;;;;9.63;8.93;;;;;;;1.97;64.03;95671.56;5137940;27;20187;-64
2022/01/27 08:47:27;;;;;;;10.30;9.50;;;;;;;1.95;64.25;95681.13;5137834;27;20198;-64
2022/01/27 08:49:54;;;;;;;9.45;8.75;;;;;;;1.94;64.34;95683.03;5137492;27;20591;-64
2022/01/27 08:52:21;;;;;;;9.27;8.48;;;;;;;1.96;64.53;95672.69;5137595;27;20191;-65
2022/01/27 08:54:48;;;;;;;9.40;8.70;;;;;;;1.96;64.67;95672.69;5137485;27;20211;-64
2022/01/27 08:57:14;;;;;;;9.88;9.07;;;;;;;1.99;64.39;95685.69;5138084;27;20275;-64
2022/01/27 08:59:41;;;;;;;9.70;8.98;;;;;;;2.03;64.46;95677.78;5137330;27;20431;-65
2022/01/27 09:02:08;;;;;;;10.43;9.60;;;;;;;2.07;64.12;95685.13;5137338;27;20199;-64
2022/01/27 09:04:36;;;;;;;11.50;10.70;;;;;;;2.06;64.12;95682.66;5137121;27;20423;-66
2022/01/27 09:07:04;;;;;;;11.73;10.85;;;;;;;2.00;63.95;95681.91;5119555;27;20207;-66
2022/01/27 09:09:30;;;;;;;11.73;10.82;;;;;;;1.94;64.49;95685.75;5119375;27;20626;-64
2022/01/27 09:11:58;;;;;;;10.77;9.98;;;;;;;1.96;64.38;95683.56;5136956;27;20419;-65
2022/01/27 09:14:29;;;;;;;9.85;9.15;;;;;;;1.98;64.55;95688.72;5137372;27;20222;-63
2022/01/27 09:16:56;;;;;;;10.13;9.43;;;;;;;2.03;64.19;95683.22;5136855;27;20781;-66
2022/01/27 09:19:25;;;;;;;10.43;9.65;;;;;;;2.07;63.69;95682.38;5136864;27;20426;-65
2022/01/27 09:21:54;;;;;;;9.73;8.93;;;;;;;2.13;63.71;95691.31;5137326;27;20201;-66
2022/01/27 09:24:27;;;;;;;9.82;9.13;;;;;;;2.19;63.23;95684.75;5137508;27;20183;-64
2022/01/27 09:27:00;;;;;;;9.55;8.85;;;;;;;2.22;62.68;95678.72;5136017;27;20442;-65
2022/01/27 09:29:27;;;;;;;9.75;9.02;;;;;;;2.30;62.88;95674.59;5119027;27;20310;-64
2022/01/27 09:31:54;;;;;;;8.93;8.30;;;;;;;2.32;62.48;95678.63;5136854;27;20192;-64
2022/01/27 09:34:21;;;;;;;10.25;9.45;;;;;;;2.35;62.78;95671.81;5119320;27;20222;-64
2022/01/27 09:36:49;;;;;;;10.00;9.20;;;;;;;2.37;62.06;95664.19;5118883;27;20195;-64
2022/01/27 09:39:18;;;;;;;9.48;8.77;;;;;;;2.44;62.19;95670.09;5136849;27;20202;-65
2022/01/27 09:41:44;;;;;;;9.15;8.55;;;;;;;2.43;61.83;95660.28;5137075;27;20197;-64
2022/01/27 09:44:13;;;;;;;9.85;9.15;;;;;;;2.43;61.85;95654.84;5136706;27;20195;-64
2022/01/27 09:46:42;;;;;;;9.68;8.98;;;;;;;2.43;62.08;95654.84;5136720;27;20208;-64
2022/01/27 09:49:13;;;;;;;10.48;9.68;;;;;;;2.46;61.65;95653.47;5137081;27;20210;-64
2022/01/27 09:51:44;;;;;;;9.77;8.98;;;;;;;2.50;61.98;95662.69;5118501;27;20253;-64
2022/01/27 09:54:11;;;;;;;10.32;9.63;;;;;;;2.57;62.11;95657.69;5135862;27;20444;-65
2022/01/27 09:56:41;;;;;;;10.70;9.90;;;;;;;2.56;61.72;95653.38;5136668;27;20188;-65
2022/01/27 09:59:08;;;;;;;10.05;9.35;;;;;;;2.47;61.89;95652.34;5136613;27;20256;-65
2022/01/27 10:01:35;;;;;;;10.20;9.50;;;;;;;2.55;62.12;95659.91;5118762;27;20202;-64
2022/01/27 10:04:03;;;;;;;10.38;9.57;;;;;;;2.58;60.95;95656.63;5136712;27;20198;-64
2022/01/27 10:06:32;;;;;;;10.85;10.05;;;;;;;2.57;60.79;95654.97;5137089;27;20581;-64
2022/01/27 10:09:12;;;;;;;10.10;9.30;;;;;;;2.61;61.04;95662.31;5136672;27;20286;-64
2022/01/27 10:11:40;;;;;;;10.15;9.15;;;;;;;2.63;60.50;95653.84;5136785;27;20179;-66
2022/01/27 10:14:17;;;;;;;9.95;9.25;;;;;;;2.58;60.51;95659.34;5136306;27;20191;-64
2022/01/27 10:16:45;;;;;;;10.15;9.35;;;;;;;2.60;60.47;95655.22;5110662;28;20230;-64
2022/01/27 10:19:13;;;;;;;10.27;9.48;;;;;;;2.55;60.13;95652.56;5114568;28;20857;-64
2022/01/27 10:21:40;;;;;;;9.90;9.20;;;;;;;2.60;60.39;95648.97;5116038;28;20209;-64
2022/01/27 10:24:21;;;;;;;10.13;9.43;;;;;;;2.65;60.32;95643.44;5115922;28;20199;-64
2022/01/27 10:26:54;;;;;;;10.82;10.02;;;;;;;2.69;60.29;95652.69;5097809;28;20232;-64
2022/01/27 10:29:35;;;;;;;11.30;10.40;;;;;;;2.74;60.34;95643.66;5116235;28;20218;-64
2022/01/27 10:32:05;;;;;;;9.90;9.10;;;;;;;2.63;59.67;95651.13;5097682;28;20203;-64
2022/01/27 10:34:55;;;;;;;10.60;9.80;;;;;;;2.61;59.46;95645.13;5097895;28;20192;-64
2022/01/27 10:37:22;;;;;;;9.38;8.57;;;;;;;2.65;59.84;95640.72;5115682;28;20202;-64
2022/01/27 10:39:49;;;;;;;9.63;8.93;;;;;;;2.72;59.34;95635.75;5097633;28;20191;-64
2022/01/27 10:42:21;;;;;;;9.90;9.10;;;;;;;2.78;58.82;95640.06;5115993;28;20214;-63
2022/01/27 10:44:54;;;;;;;9.65;8.95;;;;;;;2.87;58.25;95630.16;5097033;28;20893;-63
2022/01/27 10:47:28;;;;;;;9.02;8.32;;;;;;;2.99;57.85;95629.72;5097788;28;20204;-63
2022/01/27 10:49:58;;;;;;;9.70;8.85;;;;;;;3.05;57.58;95625.84;5115398;28;20191;-62
2022/01/27 10:52:34;;;;;;;8.27;7.57;;;;;;;3.13;57.28;95613.50;5098079;28;20191;-63
2022/01/27 10:55:08;;;;;;;8.38;7.68;;;;;;;3.28;56.76;95615.19;5099039;28;20219;-63
2022/01/27 10:57:37;;;;;;;7.72;7.15;;;;;;;3.33;56.44;95612.38;5101271;28;20200;-63
2022/01/27 11:00:10;;;;;;;7.68;7.00;;;;;;;3.30;55.92;95607.53;5101651;28;20196;-64
2022/01/27 11:02:49;;;;;;;7.53;7.03;;;;;;;3.24;56.78;95612.25;5101446;28;20207;-63
2022/01/27 11:05:19;;;;;;;7.32;6.82;;;;;;;3.32;56.24;95608.84;5119423;28;20214;-63
2022/01/27 11:07:46;;;;;;;6.78;6.20;;;;;;;3.35;55.64;95610.19;5119004;28;20224;-63
2022/01/27 11:10:15;;;;;;;6.95;6.45;;;;;;;3.42;55.45;95607.91;5119486;28;20278;-63
2022/01/27 11:12:44;;;;;;;6.63;6.13;;;;;;;3.50;55.72;95603.72;5119172;28;20203;-64
2022/01/27 11:15:11;;;;;;;7.03;6.53;;;;;;;3.61;55.81;95595.06;5101186;28;20215;-65
2022/01/27 11:17:40;;;;;;;7.15;6.57;;;;;;;3.70;55.24;95595.22;5134318;27;20234;-65
2022/01/27 11:23:11;;;;;;;6.32;5.93;;;;;;;3.85;54.78;95599.66;5136811;27;20276;-66
2022/01/27 11:25:53;;;;;;;6.90;6.40;;;;;;;4.24;53.46;95595.69;5120562;27;20430;-64
2022/01/27 11:28:22;;;;;;;6.70;6.20;;;;;;;4.64;52.61;95590.63;5139580;27;20207;-64
2022/01/27 11:31:08;;;;;;;5.47;5.15;;;;;;;4.97;51.19;95588.59;5121522;27;20252;-64
2022/01/27 11:33:36;;;;;;;5.70;5.20;;;;;;;5.28;50.16;95591.50;5121532;27;20206;-65
2022/01/27 11:36:10;;;;;;;5.57;5.18;;;;;;;5.19;49.46;95577.75;5139323;27;20272;-65
2022/01/27 11:38:38;;;;;;;5.57;5.18;;;;;;;5.17;48.93;95576.44;5120991;27;20625;-65
2022/01/27 11:41:05;;;;;;;5.60;5.20;;;;;;;5.18;49.29;95575.31;5139229;27;20209;-65
2022/01/27 11:43:34;;;;;;;5.72;5.32;;;;;;;5.29;49.12;95573.97;5121218;27;20209;-64
2022/01/27 11:46:15;;;;;;;6.05;5.65;;;;;;;5.86;48.23;95579.78;5121166;27;20229;-64
2022/01/27 11:48:42;;;;;;;5.57;5.18;;;;;;;5.80;47.37;95570.06;5121486;27;20191;-64
2022/01/27 11:51:13;;;;;;;5.68;5.28;;;;;;;5.71;47.11;95575.50;5138849;27;20691;-64
2022/01/27 11:53:42;;;;;;;5.85;5.45;;;;;;;5.67;47.85;95577.22;5121097;27;20195;-65
2022/01/27 11:56:15;;;;;;;6.00;5.60;;;;;;;5.56;47.23;95570.38;5139016;27;20219;-64
2022/01/27 11:58:46;;;;;;;6.05;5.57;;;;;;;5.63;48.14;95568.03;5138756;27;20579;-64
2022/01/27 12:01:16;;;;;;;6.35;5.88;;;;;;;6.10;48.19;95574.06;5139017;27;20195;-65
2022/01/27 12:04:12;;;;;;;6.45;5.95;;;;;;;6.59;46.32;95572.22;5120971;27;20207;-65
2022/01/27 12:06:40;;;;;;;5.68;5.28;;;;;;;7.07;45.62;95567.88;5137559;27;20261;-64
2022/01/27 12:09:29;;;;;;;5.88;5.47;;;;;;;7.02;44.05;95566.09;5138645;27;20203;-64
2022/01/27 12:11:58;;;;;;;5.10;4.80;;;;;;;6.78;44.35;95574.72;5138648;27;20224;-65
2022/01/27 12:14:30;;;;;;;5.53;5.13;;;;;;;6.90;44.96;95568.63;5138615;27;20183;-64
2022/01/27 12:17:21;;;;;;;6.35;5.85;;;;;;;7.34;45.06;95562.16;5120702;27;20245;-64